Time;durP1;ratioP1;P1;durP2;ratioP2;P2;SDS_P1;SDS_P2;PMS_P1;PMS_P2;Temp;Humidity;BMP_temperature;BMP_pressure;BME280_temperature;BME280_humidity;BME280_pressure;Samples;Min_cycle;Max_cycle;Signal;HPM_P1;HPM_P2
2020/12/30 00:00:17;;;;;;;3.05;1.30;;;17.60;31.40;;;;;;5037564;28;20458;-76
2020/12/30 00:02:43;;;;;;;5.68;1.92;;;17.70;30.60;;;;;;5040916;28;20490;-76
2020/12/30 00:05:11;;;;;;;4.45;1.65;;;17.50;31.10;;;;;;5042659;28;20022;-77
2020/12/30 00:07:38;;;;;;;11.98;2.53;;;17.50;30.70;;;;;;5049482;28;20030;-76
2020/12/30 00:10:06;;;;;;;3.80;1.35;;;17.50;33.90;;;;;;5043175;28;20373;-77
2020/12/30 00:12:34;;;;;;;3.10;1.42;;;17.40;33.10;;;;;;5035717;28;20061;-76
2020/12/30 00:15:00;;;;;;;2.05;1.20;;;17.40;33.10;;;;;;5036855;28;20075;-76
2020/12/30 00:17:27;;;;;;;4.28;2.17;;;17.30;33.00;;;;;;5041395;28;20048;-77
2020/12/30 00:19:54;;;;;;;4.43;1.58;;;17.40;35.90;;;;;;5040609;28;20032;-77
2020/12/30 00:22:21;;;;;;;2.85;1.63;;;17.30;35.40;;;;;;5034150;28;20029;-75
2020/12/30 00:24:47;;;;;;;3.28;1.45;;;17.30;35.20;;;;;;5037058;28;20056;-75
2020/12/30 00:27:14;;;;;;;3.17;1.42;;;17.20;33.20;;;;;;5034951;28;20029;-76
2020/12/30 00:29:40;;;;;;;5.45;2.70;;;17.20;34.70;;;;;;5036241;28;20025;-76
2020/12/30 00:32:11;;;;;;;4.72;2.47;;;17.30;36.70;;;;;;5037541;28;20458;-75
2020/12/30 00:34:38;;;;;;;2.97;2.15;;;17.30;38.30;;;;;;5041182;28;20032;-77
2020/12/30 00:37:05;;;;;;;7.15;2.08;;;17.10;38.70;;;;;;5046835;28;20471;-75
2020/12/30 00:39:31;;;;;;;4.43;1.58;;;17.00;37.90;;;;;;5035012;28;20075;-74
2020/12/30 00:41:57;;;;;;;4.53;1.88;;;16.80;39.00;;;;;;5032053;28;20026;-75
2020/12/30 00:44:24;;;;;;;6.18;1.90;;;16.60;39.40;;;;;;5040354;28;20411;-76
2020/12/30 00:46:52;;;;;;;3.97;1.98;;;16.40;39.10;;;;;;5048991;28;20363;-75
2020/12/30 00:49:18;;;;;;;2.47;1.90;;;16.10;39.20;;;;;;5036606;28;20026;-76
2020/12/30 00:51:55;;;;;;;5.80;2.50;;;16.00;39.80;;;;;;5025980;28;20087;-76
2020/12/30 00:54:22;;;;;;;3.65;2.20;;;15.90;40.60;;;;;;5032557;28;20494;-76
2020/12/30 00:56:49;;;;;;;6.82;1.88;;;15.70;40.30;;;;;;5030045;28;20044;-76
2020/12/30 00:59:17;;;;;;;6.65;2.38;;;15.40;40.40;;;;;;5036240;28;20029;-77
2020/12/30 01:01:50;;;;;;;4.07;2.70;;;15.20;40.80;;;;;;5035865;28;20112;-77
2020/12/30 01:04:17;;;;;;;5.03;3.00;;;15.00;41.10;;;;;;5041148;28;20025;-76
2020/12/30 01:06:49;;;;;;;5.68;2.72;;;14.80;41.40;;;;;;5033501;28;20071;-77
2020/12/30 01:09:15;;;;;;;7.55;2.10;;;14.70;41.40;;;;;;5024322;28;20029;-76
2020/12/30 01:11:41;;;;;;;4.43;2.10;;;14.50;41.40;;;;;;5034450;28;20029;-76
2020/12/30 01:14:08;;;;;;;2.75;2.00;;;14.30;41.60;;;;;;5047170;28;20112;-76
2020/12/30 01:16:34;;;;;;;6.55;2.53;;;14.20;42.00;;;;;;5051857;28;20513;-76
2020/12/30 01:19:01;;;;;;;7.32;2.40;;;14.20;42.00;;;;;;5034417;28;20018;-76
2020/12/30 01:21:27;;;;;;;7.80;2.78;;;14.20;41.80;;;;;;5035335;28;20423;-76
2020/12/30 01:23:54;;;;;;;7.35;2.97;;;14.00;42.00;;;;;;5022969;28;20121;-76
2020/12/30 01:26:20;;;;;;;6.38;2.20;;;13.70;42.60;;;;;;5032665;28;20374;-76
2020/12/30 01:28:47;;;;;;;5.97;3.05;;;13.50;43.10;;;;;;5041977;28;20039;-76
2020/12/30 01:31:13;;;;;;;12.50;4.65;;;13.40;42.90;;;;;;5040155;28;20036;-77
2020/12/30 01:33:39;;;;;;;7.13;3.53;;;13.40;43.30;;;;;;5054257;28;20025;-76
2020/12/30 01:36:06;;;;;;;6.18;3.38;;;13.30;43.40;;;;;;5054257;28;20060;-78
2020/12/30 01:38:32;;;;;;;9.77;3.55;;;13.40;43.60;;;;;;5039994;28;20061;-76
2020/12/30 01:41:00;;;;;;;8.60;3.40;;;13.30;43.50;;;;;;5036465;28;20025;-76
2020/12/30 01:43:26;;;;;;;5.18;3.42;;;13.10;43.80;;;;;;5053601;28;20072;-77
2020/12/30 01:45:53;;;;;;;5.60;2.72;;;13.10;44.10;;;;;;5036770;28;20443;-76
2020/12/30 01:48:24;;;;;;;8.68;3.22;;;13.00;44.50;;;;;;5034155;28;20038;-76
2020/12/30 01:50:51;;;;;;;6.38;3.05;;;13.00;44.60;;;;;;5033198;28;20055;-76
2020/12/30 01:53:19;;;;;;;9.38;3.75;;;13.10;44.70;;;;;;5034202;28;20034;-76
2020/12/30 01:55:46;;;;;;;7.18;2.50;;;13.10;44.80;;;;;;5041559;28;20021;-76
2020/12/30 01:58:12;;;;;;;7.95;2.97;;;13.10;45.00;;;;;;5053937;28;20033;-76
2020/12/30 02:00:41;;;;;;;5.22;3.15;;;13.20;45.10;;;;;;5035676;28;20025;-76
2020/12/30 02:03:08;;;;;;;11.20;3.53;;;13.10;44.90;;;;;;5031643;28;20409;-77
2020/12/30 02:05:36;;;;;;;14.60;3.53;;;13.10;45.50;;;;;;5037577;28;20056;-76
2020/12/30 02:08:04;;;;;;;5.65;3.47;;;13.10;45.30;;;;;;5034227;28;20328;-76
2020/12/30 02:10:31;;;;;;;9.70;2.90;;;13.00;45.50;;;;;;5034127;28;20025;-75
2020/12/30 02:12:59;;;;;;;8.90;3.30;;;13.00;45.50;;;;;;5037121;28;20171;-76
2020/12/30 02:15:30;;;;;;;10.65;3.45;;;12.90;45.20;;;;;;5032690;28;20037;-77
2020/12/30 02:17:58;;;;;;;12.88;4.75;;;13.00;45.40;;;;;;5036150;28;20021;-77
2020/12/30 02:20:25;;;;;;;6.72;3.05;;;13.00;45.60;;;;;;5038687;28;20037;-76
2020/12/30 02:23:17;;;;;;;9.30;3.70;;;13.00;45.40;;;;;;5036131;28;20025;-76
2020/12/30 02:25:44;;;;;;;6.80;3.33;;;12.90;45.70;;;;;;5034124;28;20045;-76
2020/12/30 02:28:11;;;;;;;8.80;4.25;;;12.90;46.00;;;;;;5030169;28;20033;-76
2020/12/30 02:30:38;;;;;;;7.47;3.60;;;12.90;46.10;;;;;;5033262;28;20446;-76
2020/12/30 02:33:08;;;;;;;10.35;3.67;;;12.90;46.30;;;;;;5040604;28;20036;-75
2020/12/30 02:35:35;;;;;;;7.60;4.50;;;12.80;46.40;;;;;;5037694;28;20032;-75
2020/12/30 02:38:01;;;;;;;12.80;4.35;;;12.70;46.80;;;;;;5040262;28;20558;-76
2020/12/30 02:40:28;;;;;;;8.52;4.95;;;12.60;46.70;;;;;;5037382;28;20024;-76
2020/12/30 02:42:54;;;;;;;8.73;4.85;;;12.40;46.90;;;;;;5042668;28;20028;-75
2020/12/30 02:45:21;;;;;;;14.75;6.82;;;12.30;47.10;;;;;;5038597;28;20013;-76
2020/12/30 02:47:47;;;;;;;9.82;3.70;;;12.30;47.10;;;;;;5040696;28;20064;-76
2020/12/30 02:50:14;;;;;;;7.95;4.15;;;12.30;47.10;;;;;;5038310;28;20036;-76
2020/12/30 02:52:40;;;;;;;6.35;3.45;;;12.20;47.00;;;;;;5043406;28;20036;-75
2020/12/30 02:55:06;;;;;;;7.80;2.63;;;12.30;47.00;;;;;;5034623;28;20029;-75
2020/12/30 02:57:33;;;;;;;6.38;3.58;;;12.40;47.00;;;;;;5042593;28;20078;-78
2020/12/30 02:59:59;;;;;;;4.15;2.50;;;12.50;46.50;;;;;;5035755;28;20021;-75
2020/12/30 03:02:26;;;;;;;5.97;2.90;;;12.40;46.30;;;;;;5033743;28;20113;-75
2020/12/30 03:04:53;;;;;;;12.73;3.85;;;12.30;46.50;;;;;;5035114;28;20017;-76
2020/12/30 03:07:20;;;;;;;9.25;3.72;;;12.20;46.50;;;;;;5041523;28;20033;-76
2020/12/30 03:09:47;;;;;;;5.47;3.00;;;12.20;46.70;;;;;;5042260;28;20029;-75
2020/12/30 03:12:14;;;;;;;10.93;3.80;;;12.20;46.50;;;;;;5042641;28;20108;-76
2020/12/30 03:14:41;;;;;;;6.78;3.22;;;12.20;46.50;;;;;;5030649;28;20038;-76
2020/12/30 03:17:07;;;;;;;7.53;3.30;;;12.10;47.10;;;;;;5038883;28;20135;-77
2020/12/30 03:19:34;;;;;;;4.75;4.25;;;12.20;46.80;;;;;;5042882;28;20467;-76
2020/12/30 03:22:00;;;;;;;6.72;3.35;;;12.10;46.60;;;;;;5036423;28;20083;-76
2020/12/30 03:24:27;;;;;;;6.85;3.38;;;11.80;47.00;;;;;;5039816;28;20386;-76
2020/12/30 03:26:53;;;;;;;7.18;2.90;;;11.80;47.30;;;;;;5030975;28;20021;-76
2020/12/30 03:29:20;;;;;;;9.15;3.72;;;11.80;47.20;;;;;;5040079;28;20340;-77
2020/12/30 03:31:46;;;;;;;6.93;3.53;;;11.70;47.20;;;;;;5039995;28;20055;-77
2020/12/30 03:34:12;;;;;;;5.10;3.28;;;11.70;47.40;;;;;;5039918;28;20375;-77
2020/12/30 03:36:39;;;;;;;6.80;3.22;;;11.70;47.30;;;;;;5038363;28;20530;-76
2020/12/30 03:39:06;;;;;;;6.53;2.78;;;11.70;47.80;;;;;;5036575;28;20026;-76
2020/12/30 03:41:32;;;;;;;18.90;4.97;;;11.70;47.10;;;;;;5033613;28;20448;-77
2020/12/30 03:43:59;;;;;;;4.95;3.05;;;11.70;47.10;;;;;;5035445;28;20475;-77
2020/12/30 03:46:25;;;;;;;3.67;2.80;;;11.50;47.00;;;;;;5032062;28;20030;-74
2020/12/30 03:48:52;;;;;;;29.08;4.63;;;11.60;47.30;;;;;;5040629;28;20350;-75
2020/12/30 03:51:18;;;;;;;9.00;2.80;;;11.40;47.10;;;;;;5046129;28;20332;-75
2020/12/30 03:53:44;;;;;;;5.38;3.22;;;11.50;47.60;;;;;;5047720;28;20374;-76
2020/12/30 03:56:11;;;;;;;3.67;2.72;;;11.40;47.60;;;;;;5045812;28;20025;-76
2020/12/30 03:58:38;;;;;;;6.97;3.60;;;11.30;47.70;;;;;;5040465;28;20033;-75
2020/12/30 04:01:04;;;;;;;6.80;3.35;;;11.30;47.70;;;;;;5038815;28;20104;-76
2020/12/30 04:03:31;;;;;;;11.52;4.20;;;11.30;47.90;;;;;;5037416;28;20343;-74
2020/12/30 04:05:57;;;;;;;4.82;3.05;;;11.20;47.90;;;;;;5047334;28;20525;-72
2020/12/30 04:08:24;;;;;;;7.53;3.22;;;11.10;47.90;;;;;;5035445;28;20087;-76
2020/12/30 04:10:50;;;;;;;13.10;3.90;;;10.90;48.10;;;;;;5035453;28;20100;-73
2020/12/30 04:13:17;;;;;;;10.13;3.28;;;10.90;48.20;;;;;;5034230;28;20398;-77
2020/12/30 04:15:46;;;;;;;7.20;3.80;;;10.90;47.90;;;;;;5044970;28;20029;-76
2020/12/30 04:18:12;;;;;;;7.10;4.32;;;10.80;48.20;;;;;;5034236;28;20030;-77
2020/12/30 04:20:39;;;;;;;5.90;3.60;;;10.90;48.30;;;;;;5049197;28;20021;-74
2020/12/30 04:23:05;;;;;;;6.57;3.80;;;11.10;48.10;;;;;;5032869;28;20392;-75
2020/12/30 04:25:32;;;;;;;5.65;3.53;;;11.10;48.10;;;;;;5033458;28;20021;-74
2020/12/30 04:27:58;;;;;;;8.73;3.55;;;11.00;48.00;;;;;;5035760;28;20395;-74
2020/12/30 04:30:25;;;;;;;4.43;2.72;;;10.80;48.40;;;;;;5040877;28;20159;-75
2020/12/30 04:32:51;;;;;;;5.65;3.55;;;10.70;48.30;;;;;;5038800;28;20128;-74
2020/12/30 04:35:18;;;;;;;5.68;2.90;;;10.60;48.50;;;;;;5032499;28;22052;-75
2020/12/30 04:37:45;;;;;;;4.78;3.38;;;10.40;48.80;;;;;;5034524;28;20126;-75
2020/12/30 04:40:11;;;;;;;9.25;3.58;;;10.30;48.90;;;;;;5032227;28;20022;-76
2020/12/30 04:42:38;;;;;;;4.88;2.58;;;10.40;49.50;;;;;;5035441;28;20032;-74
2020/12/30 04:45:11;;;;;;;4.78;3.53;;;10.50;49.30;;;;;;5034541;28;20025;-75
2020/12/30 04:47:41;;;;;;;5.30;3.22;;;10.50;49.10;;;;;;5039106;28;20030;-73
2020/12/30 04:50:07;;;;;;;5.63;2.80;;;10.40;49.50;;;;;;5042357;28;20140;-74
2020/12/30 04:52:35;;;;;;;4.28;2.72;;;10.40;49.40;;;;;;5034817;28;20030;-75
2020/12/30 04:55:02;;;;;;;4.93;3.08;;;10.40;49.70;;;;;;5032021;28;20025;-76
2020/12/30 04:57:43;;;;;;;3.78;2.55;;;10.50;49.70;;;;;;5037861;28;20397;-76
2020/12/30 05:00:09;;;;;;;3.92;3.05;;;10.40;49.40;;;;;;5030210;28;20025;-76
2020/12/30 05:02:47;;;;;;;7.43;2.97;;;10.40;49.60;;;;;;5031339;28;20025;-76
2020/12/30 05:05:15;;;;;;;5.95;2.95;;;10.40;49.60;;;;;;5035386;28;20031;-77
2020/12/30 05:07:45;;;;;;;8.63;3.22;;;10.40;49.70;;;;;;5032107;28;20451;-76
2020/12/30 05:10:15;;;;;;;4.95;2.80;;;10.40;49.50;;;;;;5035741;28;20029;-76
2020/12/30 05:12:42;;;;;;;5.97;2.20;;;10.20;49.30;;;;;;5038134;28;20313;-76
2020/12/30 05:15:08;;;;;;;3.90;3.10;;;10.10;49.70;;;;;;5032195;28;20033;-77
2020/12/30 05:17:37;;;;;;;4.20;2.83;;;10.00;50.10;;;;;;5040319;28;20036;-76
2020/12/30 05:20:09;;;;;;;7.65;2.85;;;10.10;49.90;;;;;;5035108;28;20021;-76
2020/12/30 05:22:35;;;;;;;4.20;2.63;;;10.10;49.80;;;;;;5032140;28;20565;-77
2020/12/30 05:25:06;;;;;;;8.98;2.90;;;10.00;49.70;;;;;;5033445;28;20037;-75
2020/12/30 05:27:35;;;;;;;8.18;3.13;;;9.90;50.00;;;;;;5031740;28;20467;-75
2020/12/30 05:30:02;;;;;;;4.35;3.05;;;9.90;50.10;;;;;;5035197;28;20112;-75
2020/12/30 05:32:29;;;;;;;4.82;3.40;;;9.90;50.20;;;;;;5034323;28;20037;-76
2020/12/30 05:34:55;;;;;;;4.28;3.50;;;9.80;50.10;;;;;;5033696;28;20029;-76
2020/12/30 05:37:35;;;;;;;8.30;3.67;;;9.80;50.40;;;;;;5043008;28;20033;-75
2020/12/30 05:40:02;;;;;;;4.35;2.88;;;9.80;50.50;;;;;;5035619;28;20029;-75
2020/12/30 05:42:29;;;;;;;8.95;3.67;;;9.90;50.50;;;;;;5042843;28;20075;-75
2020/12/30 05:44:55;;;;;;;5.55;3.15;;;9.80;50.60;;;;;;5038779;28;20108;-75
2020/12/30 05:47:24;;;;;;;3.22;2.85;;;9.90;50.60;;;;;;5044318;28;20040;-75
2020/12/30 05:49:52;;;;;;;4.80;2.90;;;9.90;50.60;;;;;;5036939;28;20156;-74
2020/12/30 05:52:24;;;;;;;4.90;2.88;;;9.90;50.30;;;;;;5035486;28;20048;-74
2020/12/30 05:54:51;;;;;;;5.37;2.90;;;9.80;50.60;;;;;;5026367;28;20447;-74
2020/12/30 05:57:37;;;;;;;5.80;2.70;;;9.90;50.60;;;;;;5029535;28;20484;-75
2020/12/30 06:00:13;;;;;;;13.18;5.13;;;10.00;50.90;;;;;;5033161;28;20030;-75
2020/12/30 06:02:44;;;;;;;3.90;2.65;;;10.10;50.80;;;;;;5039373;28;20031;-75
2020/12/30 06:05:15;;;;;;;4.95;2.75;;;10.20;50.70;;;;;;5041034;28;20438;-75
2020/12/30 06:07:49;;;;;;;7.22;3.00;;;10.20;50.50;;;;;;5039269;28;20025;-74
2020/12/30 06:10:18;;;;;;;6.13;2.83;;;10.10;50.50;;;;;;5028691;28;20025;-75
2020/12/30 06:12:50;;;;;;;7.75;2.92;;;10.10;50.70;;;;;;5033183;28;20036;-75
2020/12/30 06:15:25;;;;;;;4.55;2.60;;;10.00;50.60;;;;;;5036141;28;20036;-74
2020/12/30 06:18:03;;;;;;;5.07;2.67;;;9.90;50.70;;;;;;5035056;28;20548;-73
2020/12/30 06:20:37;;;;;;;9.88;2.47;;;10.00;51.00;;;;;;5032594;28;20044;-76
2020/12/30 06:23:10;;;;;;;3.47;2.42;;;9.80;51.00;;;;;;5033873;28;20045;-76
2020/12/30 06:25:39;;;;;;;5.65;3.47;;;9.60;51.50;;;;;;5033839;28;20179;-75
2020/12/30 06:28:18;;;;;;;6.50;2.42;;;9.40;51.90;;;;;;5041125;28;20067;-75
2020/12/30 06:30:47;;;;;;;3.75;2.42;;;9.30;52.10;;;;;;5037243;28;20030;-75
2020/12/30 06:33:15;;;;;;;2.70;2.50;;;9.20;51.90;;;;;;5034118;28;20139;-75
2020/12/30 06:35:43;;;;;;;9.93;2.78;;;9.20;51.50;;;;;;5052006;28;20025;-78
2020/12/30 06:38:21;;;;;;;5.55;3.78;;;9.20;52.00;;;;;;5044821;28;20120;-76
2020/12/30 06:40:55;;;;;;;12.85;3.20;;;9.10;51.50;;;;;;5032200;28;20024;-76
2020/12/30 06:43:41;;;;;;;8.38;3.63;;;9.10;51.60;;;;;;5058250;28;20034;-75
2020/12/30 06:46:08;;;;;;;4.18;2.63;;;9.20;51.60;;;;;;5038686;28;20045;-76
2020/12/30 06:48:58;;;;;;;5.03;3.03;;;9.20;51.80;;;;;;5044200;28;20065;-78
2020/12/30 06:51:26;;;;;;;6.97;2.95;;;9.20;51.70;;;;;;5036161;28;20132;-77
2020/12/30 06:53:56;;;;;;;4.75;2.65;;;9.30;52.00;;;;;;5036501;28;20025;-76
2020/12/30 06:56:38;;;;;;;4.65;2.67;;;9.20;51.90;;;;;;5042619;28;20021;-77
2020/12/30 06:59:06;;;;;;;2.65;2.45;;;9.10;51.80;;;;;;5051164;28;20034;-79
2020/12/30 07:01:59;;;;;;;4.13;2.63;;;9.10;52.30;;;;;;5040843;28;20114;-77
2020/12/30 07:04:30;;;;;;;3.92;2.85;;;9.10;52.30;;;;;;5029505;28;20096;-77
2020/12/30 07:06:57;;;;;;;3.85;2.50;;;9.00;52.50;;;;;;5028610;28;20022;-77
2020/12/30 07:09:31;;;;;;;9.88;3.53;;;9.00;52.50;;;;;;5039754;28;20495;-77
2020/12/30 07:11:59;;;;;;;5.68;4.05;;;9.00;52.60;;;;;;5034449;28;20048;-77
2020/12/30 07:14:30;;;;;;;6.60;3.30;;;9.00;52.60;;;;;;5040324;28;20029;-77
2020/12/30 07:16:58;;;;;;;7.13;2.80;;;9.10;52.90;;;;;;5037474;28;20378;-76
2020/12/30 07:19:44;;;;;;;9.93;3.08;;;9.10;52.80;;;;;;5040327;28;20498;-77
2020/12/30 07:22:14;;;;;;;7.28;4.25;;;9.10;53.00;;;;;;5027149;28;20033;-76
2020/12/30 07:24:46;;;;;;;5.13;3.08;;;9.10;53.20;;;;;;5032280;28;20073;-77
2020/12/30 07:27:15;;;;;;;7.10;3.95;;;9.00;53.20;;;;;;5037351;28;20119;-76
2020/12/30 07:29:46;;;;;;;5.95;3.70;;;9.00;53.40;;;;;;5029224;28;20030;-76
2020/12/30 07:32:14;;;;;;;7.68;3.33;;;8.90;53.70;;;;;;5039450;28;20030;-76
2020/12/30 07:34:46;;;;;;;6.95;2.28;;;8.80;53.50;;;;;;5031795;28;20021;-76
2020/12/30 07:37:14;;;;;;;4.57;3.33;;;8.70;53.70;;;;;;5033468;28;20081;-76
2020/12/30 07:39:42;;;;;;;8.43;3.95;;;8.70;54.20;;;;;;5046374;28;20053;-76
2020/12/30 07:42:14;;;;;;;6.28;3.58;;;8.70;54.10;;;;;;5031140;28;20018;-76
2020/12/30 07:44:48;;;;;;;3.92;2.50;;;8.70;53.90;;;;;;5031298;28;20021;-75
2020/12/30 07:47:16;;;;;;;7.00;3.03;;;8.60;54.00;;;;;;5034167;28;20033;-75
2020/12/30 07:49:43;;;;;;;5.43;3.03;;;8.60;54.10;;;;;;5033900;28;20200;-77
2020/12/30 07:52:10;;;;;;;3.42;2.60;;;8.60;54.00;;;;;;5043367;28;20393;-77
2020/12/30 07:54:38;;;;;;;5.88;2.83;;;8.60;54.00;;;;;;5035357;28;20036;-75
2020/12/30 07:57:09;;;;;;;9.50;2.88;;;8.50;54.10;;;;;;5037567;28;20087;-76
2020/12/30 07:59:38;;;;;;;5.20;2.47;;;8.30;54.00;;;;;;5034555;28;20130;-76
2020/12/30 08:02:06;;;;;;;7.90;2.65;;;8.20;54.10;;;;;;5040074;28;20232;-76
2020/12/30 08:04:34;;;;;;;6.68;2.95;;;8.10;54.80;;;;;;5040266;28;20040;-76
2020/12/30 08:07:05;;;;;;;6.07;3.30;;;8.00;54.30;;;;;;5039714;28;20355;-75
2020/12/30 08:09:36;;;;;;;5.72;2.45;;;7.90;54.90;;;;;;5032276;28;20029;-75
2020/12/30 08:12:07;;;;;;;3.80;2.75;;;7.90;54.80;;;;;;5044314;28;20021;-76
2020/12/30 08:14:36;;;;;;;2.73;2.47;;;7.80;54.50;;;;;;5040713;28;20412;-76
2020/12/30 08:17:11;;;;;;;5.40;3.00;;;7.80;54.40;;;;;;5035773;28;20029;-75
2020/12/30 08:19:46;;;;;;;4.07;2.47;;;7.80;54.40;;;;;;5043395;28;20025;-75
2020/12/30 08:22:20;;;;;;;3.55;2.78;;;7.70;54.30;;;;;;5038087;28;20439;-76
2020/12/30 08:24:50;;;;;;;5.88;2.25;;;7.80;54.60;;;;;;5038868;28;20086;-76
2020/12/30 08:27:22;;;;;;;4.50;2.92;;;7.80;54.50;;;;;;5040834;28;20021;-76
2020/12/30 08:29:49;;;;;;;4.07;2.00;;;8.10;55.30;;;;;;5037224;28;20025;-76
2020/12/30 08:32:36;;;;;;;3.88;3.25;;;8.10;54.80;;;;;;5039774;28;20040;-75
2020/12/30 08:35:18;;;;;;;6.47;2.92;;;8.00;54.40;;;;;;5041933;28;20021;-76
2020/12/30 08:38:12;;;;;;;12.25;4.22;;;7.80;54.80;;;;;;5043453;28;20421;-76
2020/12/30 08:40:41;;;;;;;4.40;2.38;;;7.70;54.80;;;;;;5037493;28;20435;-75
2020/12/30 08:43:37;;;;;;;5.60;2.65;;;7.70;55.70;;;;;;5042655;28;20040;-76
2020/12/30 08:46:07;;;;;;;7.18;2.30;;;7.90;55.20;;;;;;5040877;28;20039;-75
2020/12/30 08:48:42;;;;;;;4.25;3.00;;;7.90;55.10;;;;;;5043003;28;20025;-75
2020/12/30 08:51:08;;;;;;;7.93;2.58;;;7.90;55.20;;;;;;5038391;28;20060;-77
2020/12/30 08:53:41;;;;;;;7.75;2.90;;;7.80;55.30;;;;;;5034812;28;20463;-78
2020/12/30 08:56:08;;;;;;;4.95;2.92;;;7.70;55.00;;;;;;5037386;28;20044;-75
2020/12/30 08:58:35;;;;;;;6.43;2.95;;;7.70;55.20;;;;;;5034440;28;20040;-75
2020/12/30 09:01:01;;;;;;;4.45;2.60;;;7.80;55.70;;;;;;5041132;28;20048;-75
2020/12/30 09:03:29;;;;;;;3.67;2.67;;;7.90;55.80;;;;;;5034482;28;20516;-76
2020/12/30 09:05:58;;;;;;;6.45;2.72;;;7.90;55.20;;;;;;5036416;28;20034;-76
2020/12/30 09:08:26;;;;;;;5.20;2.67;;;8.00;55.50;;;;;;5039277;28;20028;-76
2020/12/30 09:10:52;;;;;;;8.52;3.10;;;8.00;55.30;;;;;;5033679;28;20032;-75
2020/12/30 09:13:23;;;;;;;2.40;2.20;;;8.10;55.30;;;;;;5036330;28;20046;-75
2020/12/30 09:15:54;;;;;;;4.20;2.92;;;8.00;55.10;;;;;;5032503;28;20047;-76
2020/12/30 09:18:22;;;;;;;2.72;2.38;;;7.90;55.20;;;;;;5032400;28;20470;-75
2020/12/30 09:20:49;;;;;;;5.63;2.50;;;7.90;55.40;;;;;;5030654;28;20083;-75
2020/12/30 09:23:15;;;;;;;2.58;2.38;;;7.80;55.30;;;;;;5039895;28;20026;-75
2020/12/30 09:25:42;;;;;;;4.40;2.25;;;7.60;55.50;;;;;;5036198;28;20025;-75
2020/12/30 09:28:35;;;;;;;5.80;4.07;;;7.60;55.30;;;;;;5038477;28;20032;-75
2020/12/30 09:31:06;;;;;;;2.13;1.98;;;7.60;55.40;;;;;;5036015;28;20036;-75
2020/12/30 09:33:34;;;;;;;5.40;2.33;;;7.60;55.50;;;;;;5034129;28;20040;-75
2020/12/30 09:36:08;;;;;;;6.30;2.25;;;7.60;55.30;;;;;;5039166;28;20044;-75
2020/12/30 09:38:35;;;;;;;5.57;2.70;;;7.50;55.10;;;;;;5036647;28;20028;-75
2020/12/30 09:41:11;;;;;;;5.97;2.88;;;7.40;55.50;;;;;;5037352;28;20024;-76
2020/12/30 09:43:45;;;;;;;3.05;2.70;;;7.40;55.60;;;;;;5042186;28;20021;-74
2020/12/30 09:46:20;;;;;;;4.32;2.50;;;7.40;55.80;;;;;;5048177;28;20463;-77
2020/12/30 09:48:47;;;;;;;2.42;2.22;;;7.40;56.20;;;;;;5036465;28;20029;-77
2020/12/30 09:51:17;;;;;;;3.80;2.55;;;7.40;55.90;;;;;;5032246;28;20455;-76
2020/12/30 09:53:44;;;;;;;5.35;2.95;;;7.40;56.30;;;;;;5033226;28;20463;-76
2020/12/30 09:56:14;;;;;;;2.72;2.25;;;7.30;55.80;;;;;;5036704;28;20470;-76
2020/12/30 09:58:41;;;;;;;2.95;2.55;;;7.30;56.20;;;;;;5036549;28;20025;-76
2020/12/30 10:01:07;;;;;;;2.85;2.58;;;7.30;56.60;;;;;;5047553;28;20071;-76
2020/12/30 10:03:33;;;;;;;4.45;2.50;;;7.50;56.70;;;;;;5035283;28;20070;-76
2020/12/30 10:06:00;;;;;;;5.38;1.90;;;7.50;56.50;;;;;;5035371;28;20033;-76
2020/12/30 10:08:26;;;;;;;2.42;2.22;;;7.50;56.60;;;;;;5026937;28;20025;-76
2020/12/30 10:10:53;;;;;;;5.20;2.53;;;7.40;56.50;;;;;;5044081;28;20061;-76
2020/12/30 10:13:19;;;;;;;3.30;2.47;;;7.50;56.90;;;;;;5049128;28;20038;-76
2020/12/30 10:15:46;;;;;;;3.05;2.25;;;7.30;56.50;;;;;;5036868;28;20451;-75
2020/12/30 10:18:12;;;;;;;3.95;2.83;;;7.20;56.70;;;;;;5036539;28;20037;-75
2020/12/30 10:20:38;;;;;;;3.03;2.83;;;7.50;58.00;;;;;;5045537;28;20025;-76
2020/12/30 10:23:06;;;;;;;3.05;2.67;;;7.40;57.20;;;;;;5041913;28;20039;-76
2020/12/30 10:25:33;;;;;;;3.88;2.35;;;7.30;57.00;;;;;;5039164;28;20029;-75
2020/12/30 10:27:59;;;;;;;4.03;2.58;;;7.20;57.30;;;;;;5044401;28;20021;-76
2020/12/30 10:30:26;;;;;;;9.85;3.03;;;7.30;57.70;;;;;;5037010;28;20021;-77
2020/12/30 10:32:52;;;;;;;2.88;2.67;;;7.30;57.50;;;;;;5045861;28;20021;-76
2020/12/30 10:35:18;;;;;;;7.25;2.42;;;7.30;57.50;;;;;;5038770;28;20091;-76
2020/12/30 10:37:45;;;;;;;4.22;2.30;;;7.30;58.00;;;;;;5048929;28;20101;-76
2020/12/30 10:40:11;;;;;;;6.90;2.67;;;7.30;57.50;;;;;;5036881;28;20049;-76
2020/12/30 10:42:38;;;;;;;5.63;2.42;;;7.10;57.30;;;;;;5035863;28;20068;-76
2020/12/30 10:45:04;;;;;;;3.97;2.80;;;7.10;58.80;;;;;;5038294;28;20021;-76
2020/12/30 10:47:31;;;;;;;5.07;3.75;;;7.20;58.50;;;;;;5047046;28;20025;-75
2020/12/30 10:49:57;;;;;;;5.22;2.63;;;7.20;59.00;;;;;;5041374;28;20021;-75
2020/12/30 10:52:25;;;;;;;5.00;3.15;;;7.20;58.60;;;;;;5037002;28;20029;-77
2020/12/30 10:54:51;;;;;;;9.18;2.92;;;7.20;59.10;;;;;;5037142;28;20022;-79
2020/12/30 10:57:18;;;;;;;7.10;2.95;;;7.20;58.90;;;;;;5035739;28;20029;-77
2020/12/30 10:59:44;;;;;;;5.85;2.97;;;7.10;58.90;;;;;;5036205;28;20022;-77
2020/12/30 11:02:11;;;;;;;7.93;3.25;;;7.00;58.90;;;;;;5040339;28;20022;-76
2020/12/30 11:04:37;;;;;;;12.20;3.40;;;6.90;58.60;;;;;;5034727;28;20037;-77
2020/12/30 11:07:03;;;;;;;10.95;3.50;;;7.00;59.40;;;;;;5046451;28;20419;-76
2020/12/30 11:09:30;;;;;;;6.50;2.78;;;7.10;59.50;;;;;;5040124;28;20355;-76
2020/12/30 11:11:57;;;;;;;7.50;3.30;;;7.10;60.20;;;;;;5032401;28;20049;-76
2020/12/30 11:14:24;;;;;;;16.00;3.45;;;7.10;59.80;;;;;;5039914;28;20030;-76
2020/12/30 11:16:51;;;;;;;9.73;3.45;;;7.10;59.40;;;;;;5046235;28;20041;-76
2020/12/30 11:19:17;;;;;;;8.02;4.07;;;6.80;59.10;;;;;;5038337;28;20155;-76
2020/12/30 11:21:53;;;;;;;7.70;3.55;;;6.80;59.40;;;;;;5042241;28;20158;-77
2020/12/30 11:24:20;;;;;;;5.45;3.33;;;6.70;59.40;;;;;;5035090;28;20032;-76
2020/12/30 11:26:48;;;;;;;7.95;3.85;;;6.70;59.90;;;;;;5039223;28;20014;-76
2020/12/30 11:29:14;;;;;;;10.15;4.03;;;6.70;61.80;;;;;;5038050;28;20030;-76
2020/12/30 11:31:42;;;;;;;10.98;3.58;;;6.90;62.50;;;;;;5048693;28;20078;-76
2020/12/30 11:34:09;;;;;;;12.93;4.60;;;7.10;61.50;;;;;;5031795;28;20025;-76
2020/12/30 11:36:35;;;;;;;18.77;4.45;;;7.00;61.70;;;;;;5034944;28;20041;-76
2020/12/30 11:39:03;;;;;;;9.27;3.53;;;7.10;61.80;;;;;;5034929;28;20033;-77
2020/12/30 11:41:29;;;;;;;9.05;3.65;;;7.20;61.30;;;;;;5034262;28;20084;-77
2020/12/30 11:43:55;;;;;;;15.70;4.82;;;7.20;61.60;;;;;;5034334;28;20021;-76
2020/12/30 11:46:25;;;;;;;15.30;4.93;;;7.20;61.50;;;;;;5043340;28;20025;-76
2020/12/30 11:48:53;;;;;;;9.35;3.70;;;7.20;61.60;;;;;;5035727;28;20387;-79
2020/12/30 11:51:20;;;;;;;9.98;3.45;;;7.20;61.90;;;;;;5038851;28;20409;-77
2020/12/30 11:53:46;;;;;;;13.85;4.80;;;7.10;61.90;;;;;;5036446;28;20029;-77
2020/12/30 11:56:20;;;;;;;11.25;4.03;;;7.10;61.90;;;;;;5035599;28;20033;-77
2020/12/30 11:58:47;;;;;;;14.88;4.50;;;7.00;61.80;;;;;;5038283;28;20025;-79
2020/12/30 12:01:13;;;;;;;19.77;4.47;;;7.00;63.10;;;;;;5044618;28;20033;-77
2020/12/30 12:03:39;;;;;;;6.53;3.47;;;7.10;62.80;;;;;;5039342;28;20029;-76
2020/12/30 12:06:06;;;;;;;8.55;4.85;;;7.10;62.20;;;;;;5042059;28;20060;-76
2020/12/30 12:08:33;;;;;;;9.13;3.92;;;7.00;62.80;;;;;;5035495;28;20035;-74
2020/12/30 12:10:59;;;;;;;20.35;6.88;;;7.10;62.70;;;;;;5040627;28;20030;-75
2020/12/30 12:13:25;;;;;;;9.77;4.13;;;7.20;62.30;;;;;;5042268;28;20026;-77
2020/12/30 12:15:52;;;;;;;16.88;5.05;;;7.10;61.90;;;;;;5034507;28;20552;-76
2020/12/30 12:18:18;;;;;;;10.15;4.45;;;7.10;62.20;;;;;;5045977;28;20082;-76
2020/12/30 12:20:44;;;;;;;10.45;4.25;;;7.10;62.00;;;;;;5039316;28;20033;-76
2020/12/30 12:23:11;;;;;;;12.55;3.80;;;7.00;62.00;;;;;;5038351;28;20115;-76
2020/12/30 12:25:39;;;;;;;12.02;3.78;;;7.10;62.30;;;;;;5041879;28;20363;-76
2020/12/30 12:28:05;;;;;;;5.57;3.67;;;7.00;61.90;;;;;;5034802;28;20025;-75
2020/12/30 12:30:31;;;;;;;10.15;3.70;;;7.10;61.90;;;;;;5035084;28;20021;-75
2020/12/30 12:32:58;;;;;;;11.30;3.53;;;7.00;61.80;;;;;;5038281;28;20432;-76
2020/12/30 12:35:24;;;;;;;9.10;4.32;;;7.10;62.00;;;;;;5036530;28;20136;-76
2020/12/30 12:38:08;;;;;;;8.63;3.72;;;7.10;61.50;;;;;;5053036;28;20032;-76
2020/12/30 12:40:35;;;;;;;12.80;3.42;;;7.10;61.30;;;;;;5029913;28;20108;-76
2020/12/30 12:43:03;;;;;;;6.72;3.97;;;7.00;61.20;;;;;;5032852;28;20026;-76
2020/12/30 12:45:35;;;;;;;8.77;3.35;;;6.90;60.70;;;;;;5039058;28;20022;-75
2020/12/30 12:48:02;;;;;;;10.23;3.55;;;6.70;61.10;;;;;;5035179;28;20025;-77
2020/12/30 12:50:28;;;;;;;6.28;3.33;;;6.70;61.30;;;;;;5040135;28;20455;-76
2020/12/30 12:52:55;;;;;;;13.90;4.30;;;6.60;61.20;;;;;;5034683;28;20060;-76
2020/12/30 12:55:21;;;;;;;5.18;3.05;;;6.60;61.30;;;;;;5043302;28;20030;-76
2020/12/30 12:57:47;;;;;;;5.53;2.83;;;6.50;61.40;;;;;;5037049;28;20028;-77